createdAt,value
2023-05-25T00:00:31.477Z,5.40
2023-05-25T00:04:48.844Z,5.50
2023-05-25T00:09:06.399Z,5.50
2023-05-25T00:13:23.679Z,5.50
2023-05-25T00:17:41.087Z,5.60
2023-05-25T00:22:02.049Z,5.30
2023-05-25T00:26:19.267Z,5.20
2023-05-25T00:30:36.609Z,5.10
2023-05-25T00:34:55.068Z,5.20
2023-05-25T00:39:12.690Z,5.20
2023-05-25T00:43:29.942Z,5.30
2023-05-25T00:47:51.992Z,5.20
2023-05-25T00:52:14.842Z,5.20
2023-05-25T00:56:35.562Z,5.20
2023-05-25T01:00:57.866Z,5.20
2023-05-25T01:05:17.650Z,5.00
2023-05-25T01:09:38.772Z,4.90
2023-05-25T01:13:58.176Z,5.00
2023-05-25T01:18:16.936Z,5.00
2023-05-25T01:22:41.053Z,4.90
2023-05-25T01:27:34.558Z,4.90
2023-05-25T01:31:53.588Z,4.80
2023-05-25T01:36:11.501Z,4.80
2023-05-25T01:40:29.153Z,4.70
2023-05-25T01:44:46.589Z,4.80
2023-05-25T01:49:16.863Z,4.70
2023-05-25T01:53:44.114Z,4.60
2023-05-25T01:58:02.615Z,4.50
2023-05-25T02:02:20.698Z,4.30
2023-05-25T02:06:38.780Z,4.50
2023-05-25T02:10:56.108Z,4.50
2023-05-25T02:15:13.424Z,4.40
2023-05-25T02:19:30.787Z,4.40
2023-05-25T02:23:49.541Z,4.40
2023-05-25T02:28:06.809Z,4.30
2023-05-25T02:32:25.517Z,4.10
2023-05-25T02:36:45.005Z,4.30
2023-05-25T02:41:02.672Z,4.30
2023-05-25T02:45:19.880Z,4.40
2023-05-25T02:49:37.196Z,4.30
2023-05-25T02:53:54.509Z,4.20
2023-05-25T02:58:12.254Z,4.30
2023-05-25T03:02:31.030Z,4.20
2023-05-25T03:06:48.765Z,4.20
2023-05-25T03:11:06.193Z,4.10
2023-05-25T03:15:23.438Z,4.10
2023-05-25T03:19:41.326Z,4.00
2023-05-25T03:23:59.546Z,4.00
2023-05-25T03:28:16.876Z,3.90
2023-05-25T03:32:34.456Z,4.00
2023-05-25T03:36:53.626Z,3.90
2023-05-25T03:41:11.003Z,4.00
2023-05-25T03:45:28.214Z,4.00
2023-05-25T03:49:45.690Z,4.10
2023-05-25T03:54:02.981Z,4.10
2023-05-25T03:58:20.468Z,4.40
2023-05-25T04:02:38.052Z,4.50
2023-05-25T04:06:55.595Z,4.40
2023-05-25T04:11:12.840Z,4.40
2023-05-25T04:15:30.646Z,4.50
2023-05-25T04:19:48.176Z,4.70
2023-05-25T04:24:06.687Z,4.70
2023-05-25T04:28:24.265Z,4.80
2023-05-25T04:32:43.912Z,4.80
2023-05-25T04:37:05.906Z,4.80
2023-05-25T04:41:23.255Z,4.80
2023-05-25T04:45:40.858Z,4.90
2023-05-25T04:49:58.114Z,5.10
2023-05-25T04:54:15.953Z,5.30
2023-05-25T04:58:33.681Z,5.40
2023-05-25T05:02:51.634Z,5.60
2023-05-25T05:07:09.239Z,5.70
2023-05-25T05:11:27.652Z,5.80
2023-05-25T05:15:45.105Z,6.00
2023-05-25T05:20:02.678Z,6.10
2023-05-25T05:24:20.008Z,6.30
2023-05-25T05:28:37.986Z,6.40
2023-05-25T05:32:55.873Z,6.50
2023-05-25T05:37:13.229Z,6.70
2023-05-25T05:41:30.829Z,6.80
2023-05-25T05:45:48.151Z,6.90
2023-05-25T05:50:06.575Z,7.20
2023-05-25T05:54:24.091Z,7.40
2023-05-25T05:58:41.775Z,7.50
2023-05-25T06:03:01.094Z,7.60
2023-05-25T06:07:18.922Z,7.80
2023-05-25T06:11:37.673Z,8.00
2023-05-25T06:15:54.992Z,8.10
2023-05-25T06:20:12.603Z,8.30
2023-05-25T06:24:31.253Z,8.50
2023-05-25T06:28:49.917Z,8.80
2023-05-25T06:33:11.239Z,8.90
2023-05-25T06:37:35.169Z,9.10
2023-05-25T06:41:52.510Z,9.30
2023-05-25T06:46:11.644Z,9.60
2023-05-25T06:50:29.163Z,9.80
2023-05-25T06:54:46.424Z,10.10
2023-05-25T06:59:03.789Z,10.30
2023-05-25T07:03:22.158Z,10.40
2023-05-25T07:07:39.444Z,10.50
2023-05-25T07:11:57.102Z,10.80
2023-05-25T07:16:14.744Z,11.00
2023-05-25T07:20:36.672Z,11.20
2023-05-25T07:24:55.942Z,11.50
2023-05-25T07:29:13.226Z,11.80
2023-05-25T07:33:31.068Z,12.10
2023-05-25T07:37:59.642Z,12.40
2023-05-25T07:42:21.760Z,12.70
2023-05-25T07:46:39.203Z,13.00
2023-05-25T07:50:56.570Z,14.60
2023-05-25T07:55:13.967Z,15.20
2023-05-25T07:59:31.265Z,16.10
2023-05-25T08:03:50.319Z,15.80
2023-05-25T08:08:08.254Z,15.10
2023-05-25T08:12:45.959Z,14.70
2023-05-25T08:17:05.475Z,16.50
2023-05-25T08:21:22.901Z,17.90
2023-05-25T08:25:40.347Z,16.80
2023-05-25T08:29:57.735Z,16.20
2023-05-25T08:34:15.836Z,14.70
2023-05-25T08:38:33.465Z,14.50
2023-05-25T08:42:50.757Z,15.80
2023-05-25T08:47:08.520Z,18.20
2023-05-25T08:51:26.154Z,17.40
2023-05-25T08:55:52.366Z,16.10
2023-05-25T09:00:14.073Z,17.90
2023-05-25T09:04:34.448Z,19.30
2023-05-25T09:08:52.841Z,16.60
2023-05-25T09:13:22.191Z,18.50
2023-05-25T09:17:41.728Z,18.10
2023-05-25T09:22:14.218Z,19.10
2023-05-25T09:26:34.266Z,18.50
2023-05-25T09:30:52.323Z,20.00
2023-05-25T09:35:15.424Z,19.80
2023-05-25T09:39:33.556Z,20.80
2023-05-25T09:44:01.982Z,19.10
2023-05-25T09:48:31.391Z,19.50
2023-05-25T09:52:49.399Z,20.40
2023-05-25T09:57:07.141Z,18.80
2023-05-25T10:01:26.251Z,18.80
2023-05-25T10:05:43.643Z,17.00
2023-05-25T10:10:07.068Z,16.80
2023-05-25T10:14:31.191Z,19.00
2023-05-25T10:19:03.920Z,17.40
2023-05-25T10:23:23.064Z,17.00
2023-05-25T10:27:56.707Z,17.90
2023-05-25T10:32:16.537Z,20.40
2023-05-25T10:36:34.777Z,20.70
2023-05-25T10:40:54.370Z,20.90
2023-05-25T10:45:12.977Z,20.10
2023-05-25T10:49:34.192Z,21.20
2023-05-25T10:54:04.001Z,20.60
2023-05-25T10:58:23.411Z,21.40
2023-05-25T11:02:56.163Z,22.20
2023-05-25T11:07:16.709Z,19.40
2023-05-25T11:11:43.132Z,19.60
2023-05-25T11:16:17.801Z,20.70
2023-05-25T11:20:35.474Z,20.30
2023-05-25T11:24:53.872Z,21.00
2023-05-25T11:29:16.372Z,19.50
2023-05-25T11:33:33.731Z,19.70
2023-05-25T11:37:53.920Z,20.40
2023-05-25T11:42:12.901Z,21.10
2023-05-25T11:46:33.231Z,21.90
2023-05-25T11:51:05.301Z,20.70
2023-05-25T11:55:23.051Z,20.00
2023-05-25T11:59:41.497Z,21.80
2023-05-25T12:04:09.427Z,21.90
2023-05-25T12:08:33.984Z,22.50
2023-05-25T12:12:52.374Z,22.30
2023-05-25T12:17:10.537Z,22.30
2023-05-25T12:21:28.514Z,23.40
2023-05-25T12:25:50.864Z,22.30
2023-05-25T12:30:10.558Z,22.80
2023-05-25T12:34:29.186Z,22.70
2023-05-25T12:38:58.458Z,23.40
2023-05-25T12:43:17.872Z,21.90
2023-05-25T12:47:35.383Z,22.50
2023-05-25T12:51:53.260Z,21.10
2023-05-25T12:56:12.744Z,22.70
2023-05-25T13:00:38.357Z,23.80
2023-05-25T13:04:55.947Z,24.30
2023-05-25T13:09:14.572Z,23.70
2023-05-25T13:13:32.356Z,24.50
2023-05-25T13:17:51.305Z,23.70
2023-05-25T13:22:08.976Z,22.90
2023-05-25T13:26:26.447Z,23.50
2023-05-25T13:30:44.050Z,24.50
2023-05-25T13:35:01.668Z,25.00
2023-05-25T13:39:24.051Z,24.30
2023-05-25T13:43:41.278Z,24.10
2023-05-25T13:47:59.145Z,24.30
2023-05-25T13:52:17.024Z,24.50
2023-05-25T13:56:34.483Z,24.90
2023-05-25T14:00:51.741Z,24.30
2023-05-25T14:05:09.798Z,24.60
2023-05-25T14:09:27.436Z,24.80
2023-05-25T14:13:45.839Z,25.40
2023-05-25T14:18:03.450Z,25.30
2023-05-25T14:22:21.369Z,25.30
2023-05-25T14:26:38.816Z,24.60
2023-05-25T14:30:56.181Z,24.80
2023-05-25T14:35:13.792Z,24.80
2023-05-25T14:39:31.458Z,24.20
2023-05-25T14:43:49.064Z,23.20
2023-05-25T14:48:15.859Z,24.20
2023-05-25T14:52:34.101Z,24.90
2023-05-25T14:56:51.590Z,23.90
2023-05-25T15:01:09.256Z,23.70
2023-05-25T15:05:27.607Z,23.20
2023-05-25T15:09:45.424Z,22.90
2023-05-25T15:14:02.698Z,23.80
2023-05-25T15:18:20.418Z,24.00
2023-05-25T15:22:37.677Z,23.50
2023-05-25T15:26:55.331Z,23.50
2023-05-25T15:31:12.820Z,24.50
2023-05-25T15:35:32.849Z,23.80
2023-05-25T15:39:50.588Z,21.90
2023-05-25T15:44:12.565Z,21.30
2023-05-25T15:48:30.053Z,21.80
2023-05-25T15:52:48.828Z,21.20
2023-05-25T15:57:06.367Z,20.90
2023-05-25T16:01:23.661Z,20.10
2023-05-25T16:05:41.309Z,19.70
2023-05-25T16:10:02.278Z,19.90
2023-05-25T16:14:19.996Z,20.00
2023-05-25T16:18:37.710Z,20.20
2023-05-25T16:22:55.112Z,20.20
2023-05-25T16:27:12.489Z,20.20
2023-05-25T16:31:29.891Z,19.90
2023-05-25T16:35:47.651Z,19.70
2023-05-25T16:40:05.604Z,19.50
2023-05-25T16:44:23.914Z,19.10
2023-05-25T16:48:41.191Z,19.30
2023-05-25T16:53:01.244Z,19.20
2023-05-25T16:57:20.450Z,19.10
2023-05-25T17:01:37.732Z,18.90
2023-05-25T17:05:55.104Z,18.90
2023-05-25T17:10:12.350Z,18.70
2023-05-25T17:14:29.789Z,18.50
2023-05-25T17:18:47.482Z,18.60
2023-05-25T17:23:05.138Z,18.50
2023-05-25T17:27:23.887Z,18.30
2023-05-25T17:31:41.292Z,18.30
2023-05-25T17:36:00.256Z,18.10
2023-05-25T17:40:18.348Z,18.00
2023-05-25T17:44:40.138Z,17.90
2023-05-25T17:48:57.450Z,17.90
2023-05-25T17:53:15.736Z,17.90
2023-05-25T17:57:33.183Z,17.80
2023-05-25T18:01:53.476Z,17.70
2023-05-25T18:06:11.057Z,17.50
2023-05-25T18:10:38.898Z,17.40
2023-05-25T18:14:56.984Z,17.30
2023-05-25T18:19:16.984Z,17.20
2023-05-25T18:23:34.722Z,17.00
2023-05-25T18:27:52.780Z,17.00
2023-05-25T18:32:11.001Z,16.70
2023-05-25T18:36:28.440Z,16.50
2023-05-25T18:40:47.121Z,16.40
2023-05-25T18:45:06.198Z,16.20
2023-05-25T18:49:24.460Z,16.10
2023-05-25T18:53:41.977Z,16.00
2023-05-25T18:57:59.520Z,15.70
2023-05-25T19:02:17.870Z,15.50
2023-05-25T19:06:36.144Z,15.30
2023-05-25T19:10:54.695Z,15.10
2023-05-25T19:15:13.348Z,14.90
2023-05-25T19:19:30.689Z,14.70
2023-05-25T19:23:48.739Z,14.60
2023-05-25T19:28:07.416Z,14.50
2023-05-25T19:32:24.966Z,14.30
2023-05-25T19:36:45.087Z,14.10
2023-05-25T19:41:02.493Z,14.00
2023-05-25T19:45:20.157Z,13.90
2023-05-25T19:49:38.133Z,13.70
2023-05-25T19:53:56.145Z,13.50
2023-05-25T19:58:13.566Z,13.20
2023-05-25T20:02:30.946Z,13.00
2023-05-25T20:06:48.580Z,12.60
2023-05-25T20:11:06.057Z,12.40
2023-05-25T20:15:23.493Z,12.10
2023-05-25T20:19:41.739Z,12.00
2023-05-25T20:24:00.413Z,11.90
2023-05-25T20:28:22.749Z,12.00
2023-05-25T20:32:40.164Z,12.00
2023-05-25T20:42:32.781Z,11.70
2023-05-25T20:47:12.983Z,11.50
2023-05-25T20:51:31.300Z,11.40
2023-05-25T20:55:48.710Z,11.20
2023-05-25T21:00:10.174Z,11.20
2023-05-25T21:04:28.496Z,11.00
2023-05-25T21:08:47.075Z,10.80
2023-05-25T21:13:04.499Z,10.80
2023-05-25T21:17:21.954Z,10.80
2023-05-25T21:21:39.762Z,10.70
2023-05-25T21:25:57.222Z,10.60
2023-05-25T21:30:14.900Z,10.50
2023-05-25T21:34:32.289Z,10.50
2023-05-25T21:38:49.621Z,10.40
2023-05-25T21:43:09.171Z,10.20
2023-05-25T21:47:26.873Z,10.10
2023-05-25T21:51:44.191Z,10.00
2023-05-25T21:56:01.608Z,10.00
2023-05-25T22:00:19.138Z,10.00
2023-05-25T22:04:36.556Z,9.90
2023-05-25T22:08:53.913Z,9.80
2023-05-25T22:13:11.350Z,9.50
2023-05-25T22:17:28.878Z,9.50
2023-05-25T22:21:46.414Z,9.50
2023-05-25T22:26:05.063Z,9.60
2023-05-25T22:30:22.304Z,9.50
2023-05-25T22:34:39.713Z,9.40
2023-05-25T22:38:57.056Z,9.30
2023-05-25T22:43:14.827Z,9.10
2023-05-25T22:47:32.142Z,8.90
2023-05-25T22:51:49.702Z,8.80
2023-05-25T22:56:12.037Z,8.70
2023-05-25T23:00:29.340Z,8.80
2023-05-25T23:04:47.163Z,8.70
2023-05-25T23:09:04.911Z,8.70
2023-05-25T23:13:24.357Z,8.80
2023-05-25T23:17:41.757Z,8.70
2023-05-25T23:21:59.190Z,8.60
2023-05-25T23:26:16.542Z,8.30
2023-05-25T23:30:33.816Z,8.20
2023-05-25T23:34:51.117Z,8.30
2023-05-25T23:39:09.100Z,8.40
2023-05-25T23:43:26.984Z,8.30
2023-05-25T23:47:44.367Z,8.20
2023-05-25T23:52:01.964Z,8.10
2023-05-25T23:56:19.249Z,8.10
